Aeroporto :
LOGIN :

Iscrizione | Disclaimer

   EN    FR    IT 

 










Sommario :    VFR   VFR Marginale   IFR   IFR Intensivo   IFR Molto Intensivo
Visibilità : 
Base nubi : 
>= 8 km
>= 3000ft
5 / 8 km
1000 / 3000 ft
1500m / 5 km
500 / 1000 ft
800 / 1500m
200 / 500 ft
< 800m
< 200 ft
Simboli :   Temporali  Nebbia  Neve Forte  Precipitazioni Forti  Vento > 20 kt
SIGMETs :   Varie  Temporali  Ghiacco  Turbolenza  Onda orograficha  Ceneri Vulcaniche






- Altitudine del aeroporto : 53 ft
- Codice IATA : HAM


EDDH - Hamburg

ULTIMO METAR :
  • 221520Z 23007KT 190V270 9999 SCT019 BKN026 14/10 Q1022 NOSIG

METARs OBSOLETI :
  • 221450Z 24009KT 9999 BKN021 14/10 Q1022 NOSIG
  • 221420Z 25007KT 220V280 9999 BKN020 14/10 Q1022 NOSIG
  • 221350Z 23011KT 200V270 9999 SCT020 14/10 Q1022 NOSIG
  • 221320Z 23013KT 200V260 9999 SCT020 BKN038 15/10 Q1022 NOSIG
  • 221250Z 23012KT 9999 SCT018 BKN039 14/10 Q1022 NOSIG

TAF TAF EDDH
Valido dal 22 a 12 ore il 23 a 18 ore UTC


221100Z 2212/2318 23010KT 9999 SCT035
BECMG 2215/2218 VRB03KT
TEMPO 2221/2309 2500 BCFG BKN010
PROB30
TEMPO 2300/2308 0800 FG BKN002
BECMG 2308/2311 12006KT



MetMap, La meteo Aeronautica in un colpo d'occhio ! - Copyright ORBIFLY Dicembre 2007 - Disclaimer

ORBIFLY MET'MAP TEAM :

Programmazione e sviluppo : Alexandra Zaïnal
Concezione e sviluppo : Baudouin d'Aumeries
Co-Programmazione e sviluppo : Marc-Olivier Méhu
Supporto tecnico e logistico : Manuel Goepfert
Aiuto per la traduzione : Arnaldo La Scala

Contatto : metmap@orbifly.com




FONTI E CREDITI :

   NOAA